Time;durP1;ratioP1;P1;durP2;ratioP2;P2;SDS_P1;SDS_P2;PMS_P1;PMS_P2;Temp;Humidity;BMP_temperature;BMP_pressure;BME280_temperature;BME280_humidity;BME280_pressure;Samples;Min_cycle;Max_cycle;Signal;HPM_P1;HPM_P2
2021/10/04 00:04:25;;;;;;;2.85;1.40;;;12.80;99.90;;;;;;12482390;28;20107;-35
2021/10/04 00:10:28;;;;;;;4.75;1.70;;;12.80;99.90;;;;;;12472955;28;20453;-35
2021/10/04 00:16:30;;;;;;;3.78;1.48;;;12.70;99.90;;;;;;12513072;28;20060;-35
2021/10/04 00:22:32;;;;;;;3.60;1.40;;;12.70;99.90;;;;;;12487981;28;20049;-37
2021/10/04 00:28:34;;;;;;;4.57;1.60;;;12.70;99.90;;;;;;12465107;28;20054;-39
2021/10/04 00:34:35;;;;;;;4.97;1.48;;;12.70;99.90;;;;;;12464236;28;20053;-40
2021/10/04 00:40:37;;;;;;;5.20;1.40;;;12.70;99.90;;;;;;12468578;28;20119;-37
2021/10/04 00:46:39;;;;;;;4.00;1.52;;;12.50;99.90;;;;;;12515434;28;20167;-36
2021/10/04 00:52:41;;;;;;;3.38;1.40;;;12.60;99.90;;;;;;12511477;28;20466;-40
2021/10/04 00:58:43;;;;;;;3.63;1.58;;;12.60;99.90;;;;;;12509359;28;20060;-36
2021/10/04 01:04:45;;;;;;;3.10;1.50;;;12.50;99.90;;;;;;12509375;28;20057;-40
2021/10/04 01:10:47;;;;;;;2.67;1.33;;;12.50;99.90;;;;;;12507812;28;20053;-36
2021/10/04 01:16:50;;;;;;;5.28;1.88;;;12.50;99.90;;;;;;12513400;28;20124;-37
2021/10/04 01:22:53;;;;;;;5.93;1.60;;;12.50;99.90;;;;;;12509611;28;20052;-41
2021/10/04 01:28:55;;;;;;;3.08;1.52;;;12.50;99.90;;;;;;12507984;28;20302;-37
2021/10/04 01:34:57;;;;;;;4.63;1.95;;;12.50;99.90;;;;;;12509374;28;20057;-39
2021/10/04 01:40:59;;;;;;;3.22;1.90;;;12.40;99.90;;;;;;12510231;28;20060;-36
2021/10/04 01:47:01;;;;;;;3.97;1.60;;;12.40;99.90;;;;;;12511153;28;20094;-36
2021/10/04 01:53:04;;;;;;;3.17;1.17;;;12.40;99.90;;;;;;12509672;28;20178;-37
2021/10/04 01:59:06;;;;;;;3.28;1.17;;;12.40;99.90;;;;;;12512974;28;20052;-36
2021/10/04 02:05:09;;;;;;;2.90;1.20;;;12.30;99.90;;;;;;12519029;28;20075;-41
2021/10/04 02:11:11;;;;;;;4.22;1.25;;;12.40;99.90;;;;;;12520358;28;20099;-41
2021/10/04 02:17:13;;;;;;;3.28;1.20;;;12.40;99.90;;;;;;12517876;28;20170;-40
2021/10/04 02:23:15;;;;;;;2.90;0.90;;;12.40;99.90;;;;;;12517535;28;20044;-36
2021/10/04 02:29:17;;;;;;;4.22;1.20;;;12.20;99.90;;;;;;12519423;28;20368;-39
2021/10/04 02:35:19;;;;;;;3.50;0.95;;;12.30;99.90;;;;;;12521667;28;20661;-36
2021/10/04 02:41:21;;;;;;;2.22;0.90;;;12.20;99.90;;;;;;12518014;28;20430;-36
2021/10/04 02:47:23;;;;;;;5.05;1.20;;;12.10;99.90;;;;;;12520942;28;20048;-36
2021/10/04 02:53:25;;;;;;;6.20;1.10;;;11.90;99.90;;;;;;12520594;28;20102;-40
2021/10/04 02:59:27;;;;;;;5.85;1.30;;;11.80;99.90;;;;;;12518109;28;20064;-37
2021/10/04 03:05:29;;;;;;;2.63;0.80;;;11.70;99.90;;;;;;12516389;28;20094;-39
2021/10/04 03:11:31;;;;;;;3.28;0.85;;;11.70;99.90;;;;;;12517723;28;20052;-37
2021/10/04 03:17:33;;;;;;;4.07;0.90;;;11.70;99.90;;;;;;12519834;28;20426;-39
2021/10/04 03:23:35;;;;;;;3.28;0.90;;;11.80;99.90;;;;;;12519014;28;20494;-40
2021/10/04 03:29:37;;;;;;;4.25;0.80;;;11.80;99.90;;;;;;12519550;28;20059;-41
2021/10/04 03:35:40;;;;;;;7.78;1.40;;;11.80;99.90;;;;;;12514973;28;20430;-43
2021/10/04 03:41:43;;;;;;;3.38;1.00;;;11.70;99.90;;;;;;12517755;28;20045;-36
2021/10/04 03:47:45;;;;;;;3.67;1.00;;;11.70;99.90;;;;;;12518484;28;20106;-36
2021/10/04 03:53:47;;;;;;;4.00;1.10;;;11.70;99.90;;;;;;12518112;28;20095;-35
2021/10/04 03:59:49;;;;;;;2.72;0.95;;;11.70;99.90;;;;;;12518251;28;20052;-40
2021/10/04 04:05:51;;;;;;;1.60;0.68;;;11.70;99.90;;;;;;12514430;28;20041;-39
2021/10/04 04:11:52;;;;;;;2.67;0.80;;;11.80;99.90;;;;;;12514857;28;20123;-36
2021/10/04 04:17:54;;;;;;;2.28;0.60;;;11.80;99.90;;;;;;12517425;28;20053;-36
2021/10/04 04:23:56;;;;;;;1.73;0.85;;;11.80;99.90;;;;;;12519314;28;20765;-36
2021/10/04 04:30:00;;;;;;;4.03;0.80;;;11.90;99.90;;;;;;12514376;28;20281;-36
2021/10/04 04:36:02;;;;;;;;;;;11.80;99.90;;;;;;12517359;28;20494;-36
2021/10/04 04:42:06;;;;;;;3.05;0.50;;;11.80;99.90;;;;;;12512735;28;19931;-36
2021/10/04 04:48:07;;;;;;;5.40;0.68;;;11.90;99.90;;;;;;12514838;28;20045;-41
2021/10/04 04:54:09;;;;;;;4.00;0.68;;;11.90;99.90;;;;;;12512607;28;20482;-41
2021/10/04 05:00:14;;;;;;;3.20;0.60;;;11.80;99.90;;;;;;12513851;28;20056;-37
2021/10/04 05:06:15;;;;;;;2.35;0.70;;;11.80;99.90;;;;;;12507202;28;20057;-36
2021/10/04 05:12:17;;;;;;;4.97;0.93;;;11.90;99.90;;;;;;12511218;28;20419;-36
2021/10/04 05:18:19;;;;;;;1.63;0.50;;;12.00;99.90;;;;;;12513179;28;20052;-40
2021/10/04 05:24:21;;;;;;;2.70;0.57;;;12.00;99.90;;;;;;12510276;28;20452;-39
2021/10/04 05:30:22;;;;;;;1.85;0.50;;;11.90;99.90;;;;;;12512502;28;20449;-35
2021/10/04 05:36:24;;;;;;;2.38;0.60;;;12.00;99.90;;;;;;12511065;28;20045;-35
2021/10/04 05:42:31;;;;;;;3.85;0.60;;;12.00;99.90;;;;;;12514446;28;20045;-36
2021/10/04 05:48:33;;;;;;;2.80;0.65;;;12.00;99.90;;;;;;12514348;28;20107;-37
2021/10/04 05:54:35;;;;;;;6.35;0.80;;;12.00;99.90;;;;;;12508858;28;20057;-39
2021/10/04 06:00:39;;;;;;;2.58;0.75;;;12.00;99.90;;;;;;12512600;28;20057;-40
2021/10/04 06:06:41;;;;;;;1.90;0.60;;;12.10;99.90;;;;;;12508894;28;20057;-39
2021/10/04 06:12:43;;;;;;;4.20;0.85;;;12.10;99.90;;;;;;12512519;28;20988;-40
2021/10/04 06:18:45;;;;;;;2.00;0.60;;;12.10;99.90;;;;;;12513340;28;20133;-42
2021/10/04 06:24:48;;;;;;;2.85;0.70;;;12.10;99.90;;;;;;12513286;28;20055;-40
2021/10/04 06:30:50;;;;;;;3.22;0.60;;;12.20;99.90;;;;;;12513858;28;20057;-39
2021/10/04 06:36:52;;;;;;;2.28;0.50;;;12.30;99.90;;;;;;12510883;28;20057;-35
2021/10/04 06:42:54;;;;;;;3.83;0.90;;;12.30;99.90;;;;;;12512278;28;20053;-39
2021/10/04 06:48:56;;;;;;;8.60;0.88;;;12.40;99.90;;;;;;12518376;28;20170;-35
2021/10/04 06:54:59;;;;;;;3.28;0.60;;;12.40;99.90;;;;;;12520365;28;20045;-36
2021/10/04 07:01:01;;;;;;;3.45;0.70;;;12.50;99.90;;;;;;12521608;28;20456;-35
2021/10/04 07:07:03;;;;;;;2.55;0.70;;;12.60;99.90;;;;;;12521527;28;20095;-37
2021/10/04 07:13:05;;;;;;;3.08;0.57;;;12.60;99.90;;;;;;12518427;28;20094;-41
2021/10/04 07:19:07;;;;;;;2.22;0.40;;;12.60;99.90;;;;;;12519648;28;20045;-37
2021/10/04 07:25:11;;;;;;;4.90;0.80;;;12.70;99.90;;;;;;12517780;28;20555;-35
2021/10/04 07:31:13;;;;;;;3.05;0.68;;;12.70;99.90;;;;;;12517371;28;20056;-35
2021/10/04 07:37:15;;;;;;;3.35;0.60;;;12.80;99.90;;;;;;12516942;28;20056;-39
2021/10/04 07:43:17;;;;;;;3.40;0.65;;;12.80;99.90;;;;;;12518273;28;20048;-36
2021/10/04 07:49:19;;;;;;;3.55;0.68;;;12.80;99.90;;;;;;12518902;28;20127;-40
2021/10/04 07:55:29;;;;;;;4.68;0.65;;;12.90;99.90;;;;;;12518314;28;20067;-43
2021/10/04 08:01:32;;;;;;;3.63;0.77;;;12.90;99.90;;;;;;12518252;28;20057;-39
2021/10/04 08:07:35;;;;;;;3.03;0.50;;;13.00;99.90;;;;;;12516223;28;20132;-40
2021/10/04 08:13:39;;;;;;;3.33;0.68;;;13.00;99.90;;;;;;12515364;28;20056;-37
2021/10/04 08:19:41;;;;;;;3.88;0.75;;;13.10;99.90;;;;;;12515013;28;20472;-40
2021/10/04 08:25:43;;;;;;;4.18;0.60;;;13.20;99.90;;;;;;12515504;28;20048;-45
2021/10/04 08:31:45;;;;;;;5.10;1.00;;;13.10;99.90;;;;;;12509445;28;20482;-42
2021/10/04 08:37:48;;;;;;;1.52;0.47;;;13.20;99.90;;;;;;12513041;28;20083;-36
2021/10/04 08:43:53;;;;;;;2.13;0.40;;;13.30;99.90;;;;;;12511247;28;20041;-40
2021/10/04 08:49:55;;;;;;;2.78;0.70;;;13.30;99.90;;;;;;12515364;28;20107;-39
2021/10/04 08:55:57;;;;;;;3.17;0.80;;;13.50;99.90;;;;;;12511123;28;20555;-39
2021/10/04 09:02:31;;;;;;;2.65;0.60;;;13.40;99.90;;;;;;12512782;28;20057;-40
2021/10/04 09:09:09;;;;;;;3.87;0.83;;;13.60;99.90;;;;;;12515177;28;20049;-40
2021/10/04 09:15:41;;;;;;;2.60;0.57;;;13.70;99.90;;;;;;12513779;28;20572;-40
2021/10/04 09:22:01;;;;;;;4.00;0.63;;;13.70;99.90;;;;;;12513570;28;20049;-38
2021/10/04 09:28:07;;;;;;;3.83;0.50;;;13.80;99.90;;;;;;12511864;28;20140;-35
2021/10/04 09:34:15;;;;;;;2.78;0.63;;;13.90;99.90;;;;;;12511033;28;20049;-37
2021/10/04 09:40:39;;;;;;;4.00;0.68;;;14.00;99.90;;;;;;12514564;28;20163;-40
2021/10/04 09:46:41;;;;;;;4.30;0.73;;;14.00;99.90;;;;;;12512015;28;20500;-40
2021/10/04 09:52:49;;;;;;;2.17;0.63;;;14.10;99.90;;;;;;12514124;28;20053;-36
2021/10/04 09:58:50;;;;;;;1.98;0.70;;;14.10;99.90;;;;;;12514932;28;20636;-41
2021/10/04 10:04:53;;;;;;;3.42;0.60;;;14.10;99.90;;;;;;12510778;28;20486;-40
2021/10/04 10:10:58;;;;;;;5.55;0.60;;;14.20;99.90;;;;;;12513055;28;20049;-36
2021/10/04 10:16:59;;;;;;;2.20;0.68;;;14.20;99.90;;;;;;12510949;28;21024;-40
2021/10/04 10:23:01;;;;;;;1.77;0.65;;;14.40;99.90;;;;;;12511901;28;20094;-40
2021/10/04 10:29:31;;;;;;;2.88;0.80;;;14.50;99.90;;;;;;12522471;28;20118;-36
2021/10/04 10:35:49;;;;;;;5.57;0.80;;;14.80;99.90;;;;;;12519858;28;20057;-40
2021/10/04 10:42:09;;;;;;;5.13;1.02;;;15.10;99.90;;;;;;12521518;28;20470;-41
2021/10/04 10:48:11;;;;;;;1.92;0.52;;;15.20;99.90;;;;;;12520093;28;20045;-36
2021/10/04 10:54:36;;;;;;;5.30;0.90;;;15.30;99.90;;;;;;12520078;28;20061;-40
2021/10/04 11:00:45;;;;;;;4.25;0.70;;;15.60;99.90;;;;;;12521372;28;20395;-41
2021/10/04 11:06:48;;;;;;;3.95;0.75;;;15.90;99.90;;;;;;12517289;28;20540;-36
2021/10/04 11:13:08;;;;;;;4.35;0.68;;;16.00;99.90;;;;;;12515418;28;20053;-41
2021/10/04 11:19:21;;;;;;;5.15;0.70;;;16.40;99.90;;;;;;12520007;28;20107;-40
2021/10/04 11:25:24;;;;;;;5.27;0.70;;;17.00;99.90;;;;;;12519856;28;20053;-40
2021/10/04 11:31:33;;;;;;;4.15;0.60;;;17.30;99.90;;;;;;12518066;28;20045;-41
2021/10/04 11:37:35;;;;;;;3.00;0.50;;;17.30;99.90;;;;;;12517945;28;20867;-37
2021/10/04 11:43:44;;;;;;;2.63;0.60;;;17.50;99.90;;;;;;12520208;28;20057;-38
2021/10/04 11:49:50;;;;;;;2.65;0.60;;;17.50;99.90;;;;;;12519347;28;20052;-42
2021/10/04 11:55:59;;;;;;;1.88;0.60;;;17.70;99.90;;;;;;12519140;28;20061;-41
2021/10/04 12:02:20;;;;;;;6.15;0.70;;;18.00;99.90;;;;;;12517793;28;21666;-36
2021/10/04 12:08:35;;;;;;;4.30;0.52;;;17.70;99.90;;;;;;12518855;28;20128;-41
2021/10/04 12:14:39;;;;;;;5.35;0.70;;;17.90;99.90;;;;;;12517932;28;20139;-38
2021/10/04 12:20:42;;;;;;;4.85;0.60;;;17.90;99.90;;;;;;12516244;28;20107;-40
2021/10/04 12:26:49;;;;;;;1.83;0.40;;;18.20;99.90;;;;;;12514350;28;20190;-40
2021/10/04 12:32:51;;;;;;;3.38;0.70;;;18.30;99.90;;;;;;12518149;28;20057;-36
2021/10/04 12:38:56;;;;;;;3.30;0.60;;;17.90;99.90;;;;;;12517727;28;20084;-40
2021/10/04 12:45:06;;;;;;;1.83;0.40;;;17.70;99.90;;;;;;12517650;28;20627;-37
2021/10/04 12:51:15;;;;;;;5.25;0.60;;;17.70;99.90;;;;;;12515628;28;20479;-37
2021/10/04 12:57:28;;;;;;;1.90;0.50;;;17.90;99.90;;;;;;12521111;28;20055;-40
2021/10/04 13:03:30;;;;;;;1.73;0.50;;;18.00;99.90;;;;;;12513855;28;20049;-40
2021/10/04 13:09:53;;;;;;;2.22;0.57;;;18.10;99.90;;;;;;12516972;28;20056;-43
2021/10/04 13:15:54;;;;;;;2.45;0.40;;;17.60;99.90;;;;;;12512657;28;20049;-36
2021/10/04 13:21:56;;;;;;;4.45;0.50;;;17.60;99.90;;;;;;12508099;28;20057;-42
2021/10/04 13:27:58;;;;;;;6.18;0.90;;;17.50;99.90;;;;;;12512510;28;20068;-37
2021/10/04 13:34:00;;;;;;;1.20;0.40;;;17.50;99.90;;;;;;12510552;28;20087;-41
2021/10/04 13:40:03;;;;;;;2.28;0.50;;;17.70;99.90;;;;;;12510313;28;20053;-37
2021/10/04 13:46:06;;;;;;;2.33;0.57;;;17.80;99.90;;;;;;12512016;28;20091;-36
2021/10/04 13:52:08;;;;;;;3.78;0.63;;;17.70;99.90;;;;;;12512398;28;20392;-37
2021/10/04 13:58:10;;;;;;;2.50;0.47;;;17.70;99.90;;;;;;12511848;28;20628;-40
2021/10/04 14:04:12;;;;;;;1.90;0.40;;;17.70;99.90;;;;;;12506650;28;20402;-41
2021/10/04 14:10:13;;;;;;;1.35;0.52;;;17.70;99.90;;;;;;12510221;28;20475;-42
2021/10/04 14:16:16;;;;;;;3.17;0.50;;;17.60;99.90;;;;;;12513258;28;22106;-40
2021/10/04 14:22:18;;;;;;;2.40;0.50;;;17.50;99.90;;;;;;12511690;28;20813;-40
2021/10/04 14:28:20;;;;;;;0.70;0.30;;;17.40;99.90;;;;;;12506023;28;20445;-40
2021/10/04 14:34:22;;;;;;;1.77;0.40;;;17.20;99.90;;;;;;12510421;28;20072;-40
2021/10/04 14:40:24;;;;;;;2.05;0.50;;;17.20;99.90;;;;;;12510201;28;20041;-38
2021/10/04 14:46:26;;;;;;;1.50;0.52;;;17.20;99.90;;;;;;12461603;28;20049;-39
2021/10/04 14:52:28;;;;;;;3.25;0.57;;;17.20;99.90;;;;;;12481977;28;20048;-36
2021/10/04 14:58:31;;;;;;;3.15;0.60;;;17.10;99.90;;;;;;12512731;28;20056;-40
2021/10/04 15:04:33;;;;;;;3.75;0.63;;;16.90;99.90;;;;;;12478578;28;20136;-41
2021/10/04 15:10:37;;;;;;;1.60;0.30;;;16.80;99.90;;;;;;12468398;28;20940;-36
2021/10/04 15:16:39;;;;;;;2.80;0.52;;;16.60;99.90;;;;;;12475234;28;20053;-40
2021/10/04 15:22:41;;;;;;;4.35;0.63;;;16.50;99.90;;;;;;12497443;28;20616;-41
2021/10/04 15:28:43;;;;;;;6.18;0.95;;;16.50;99.90;;;;;;12515693;28;20142;-43
2021/10/04 15:34:45;;;;;;;1.70;0.47;;;16.40;99.90;;;;;;12479708;28;20102;-38
2021/10/04 15:40:47;;;;;;;4.68;0.40;;;16.30;99.90;;;;;;12474949;28;20095;-42
2021/10/04 15:46:48;;;;;;;2.28;0.60;;;16.10;99.90;;;;;;12518161;28;20506;-41
2021/10/04 15:52:51;;;;;;;3.22;0.60;;;15.90;99.90;;;;;;12484772;28;20045;-37
2021/10/04 15:58:52;;;;;;;2.90;0.50;;;15.90;99.90;;;;;;12455132;28;20518;-40
2021/10/04 16:04:54;;;;;;;1.25;0.50;;;15.80;99.90;;;;;;12505049;28;20044;-40
2021/10/04 16:10:57;;;;;;;2.20;0.73;;;15.80;99.90;;;;;;12516657;28;20103;-37
2021/10/04 16:16:59;;;;;;;3.08;0.40;;;15.70;99.90;;;;;;12517823;28;20052;-37
2021/10/04 16:23:04;;;;;;;2.67;0.60;;;15.60;99.90;;;;;;12513468;28;20051;-42
2021/10/04 16:29:07;;;;;;;2.30;0.50;;;15.50;99.90;;;;;;12515465;28;20052;-41
2021/10/04 16:35:09;;;;;;;2.40;0.60;;;15.50;99.90;;;;;;12515220;28;20045;-40
2021/10/04 16:41:11;;;;;;;4.47;0.52;;;15.20;99.90;;;;;;12519553;28;20198;-36
2021/10/04 16:47:13;;;;;;;1.75;0.57;;;15.10;99.90;;;;;;12515461;28;20053;-42
2021/10/04 16:53:15;;;;;;;2.50;0.50;;;15.10;99.90;;;;;;12516843;28;20102;-40
2021/10/04 16:59:17;;;;;;;2.78;0.47;;;15.00;99.90;;;;;;12512380;28;20056;-40
2021/10/04 17:05:19;;;;;;;5.65;0.60;;;14.90;99.90;;;;;;12513856;28;20048;-42
2021/10/04 17:11:21;;;;;;;2.20;0.43;;;14.80;99.90;;;;;;12514880;28;20408;-40
2021/10/04 17:17:23;;;;;;;2.17;0.57;;;14.80;99.90;;;;;;12519534;28;20049;-36
2021/10/04 17:23:25;;;;;;;1.65;0.50;;;14.60;99.90;;;;;;12514026;28;20093;-36
2021/10/04 17:29:28;;;;;;;4.32;0.68;;;14.50;99.90;;;;;;12515761;28;20453;-40
2021/10/04 17:35:30;;;;;;;2.10;0.70;;;14.40;99.90;;;;;;12512867;28;20098;-36
2021/10/04 17:41:32;;;;;;;2.00;0.50;;;14.30;99.90;;;;;;12519878;28;20529;-41
2021/10/04 17:47:36;;;;;;;2.90;0.77;;;14.20;99.90;;;;;;12511359;28;20053;-37
2021/10/04 17:53:38;;;;;;;4.67;0.70;;;14.10;99.90;;;;;;12516695;28;20098;-40
2021/10/04 17:59:40;;;;;;;3.88;0.60;;;14.20;99.90;;;;;;12510274;28;20057;-41
2021/10/04 18:05:43;;;;;;;2.58;0.60;;;14.30;99.90;;;;;;12506960;28;20048;-36
2021/10/04 18:11:45;;;;;;;3.23;0.67;;;14.30;99.90;;;;;;12509864;28;20391;-36
2021/10/04 18:17:47;;;;;;;3.00;0.80;;;14.20;99.90;;;;;;12512123;28;20087;-36
2021/10/04 18:23:49;;;;;;;1.58;0.73;;;13.90;99.90;;;;;;12510114;28;20048;-36
2021/10/04 18:29:52;;;;;;;2.80;1.35;;;13.40;99.90;;;;;;12510865;28;20575;-37
2021/10/04 18:35:54;;;;;;;3.33;1.10;;;13.30;99.90;;;;;;12507802;28;20085;-36
2021/10/04 18:41:55;;;;;;;4.50;1.13;;;13.30;99.90;;;;;;12512062;28;20557;-36
2021/10/04 18:47:57;;;;;;;2.63;0.90;;;13.30;99.90;;;;;;12517154;28;20122;-36
2021/10/04 18:54:00;;;;;;;2.03;0.80;;;13.30;99.90;;;;;;12517437;28;20436;-36
2021/10/04 19:00:05;;;;;;;5.15;1.08;;;13.20;99.90;;;;;;12519506;28;20045;-41
2021/10/04 19:06:07;;;;;;;4.05;1.00;;;13.20;99.90;;;;;;12520287;28;20051;-36
2021/10/04 19:12:08;;;;;;;3.17;1.17;;;13.10;99.90;;;;;;12517964;28;20115;-37
2021/10/04 19:18:10;;;;;;;3.05;1.08;;;13.00;99.90;;;;;;12519598;28;20494;-37
2021/10/04 19:24:13;;;;;;;3.70;1.20;;;13.00;99.90;;;;;;12515519;28;20110;-36
2021/10/04 19:30:15;;;;;;;3.13;1.13;;;13.00;99.90;;;;;;12515744;28;20549;-40
2021/10/04 19:36:17;;;;;;;3.22;1.48;;;12.90;99.90;;;;;;12517045;28;20045;-36
2021/10/04 19:42:19;;;;;;;4.00;2.10;;;12.80;99.90;;;;;;12516517;28;20651;-39
2021/10/04 19:48:21;;;;;;;2.45;1.27;;;12.80;99.90;;;;;;12516740;28;20075;-35
2021/10/04 19:54:48;;;;;;;6.13;2.28;;;12.80;99.90;;;;;;12515266;28;20102;-36
2021/10/04 20:00:51;;;;;;;4.13;1.60;;;12.80;99.90;;;;;;12513907;28;20075;-35
2021/10/04 20:06:53;;;;;;;4.00;1.50;;;12.80;99.90;;;;;;12515394;28;20049;-40
2021/10/04 20:12:56;;;;;;;2.92;1.50;;;12.80;99.90;;;;;;12515102;28;20098;-35
2021/10/04 20:18:58;;;;;;;4.43;1.92;;;12.70;99.90;;;;;;12516618;28;20049;-36
2021/10/04 20:25:03;;;;;;;2.53;1.63;;;12.60;99.90;;;;;;12512373;28;20049;-37
2021/10/04 20:31:04;;;;;;;2.90;1.88;;;12.50;99.90;;;;;;12513960;28;20041;-41
2021/10/04 20:37:07;;;;;;;2.75;2.13;;;12.50;99.90;;;;;;12514298;28;20129;-37
2021/10/04 20:43:09;;;;;;;3.83;2.05;;;12.60;99.90;;;;;;12514598;28;20096;-39
2021/10/04 20:49:11;;;;;;;3.67;2.30;;;12.60;99.90;;;;;;12513564;28;20130;-39
2021/10/04 20:55:13;;;;;;;3.55;2.30;;;12.60;99.90;;;;;;12512176;28;20060;-36
2021/10/04 21:01:16;;;;;;;4.25;2.30;;;12.60;99.90;;;;;;12512911;28;20052;-35
2021/10/04 21:07:18;;;;;;;4.65;2.83;;;12.60;99.90;;;;;;12510470;28;20048;-40
2021/10/04 21:13:20;;;;;;;4.85;3.30;;;12.60;99.90;;;;;;12511876;28;20045;-40
2021/10/04 21:19:22;;;;;;;5.63;2.80;;;12.50;99.90;;;;;;12511467;28;20069;-39
2021/10/04 21:25:24;;;;;;;3.55;2.80;;;12.40;99.90;;;;;;12512424;28;20686;-39
2021/10/04 21:31:26;;;;;;;4.85;3.50;;;12.30;99.90;;;;;;12513736;28;20036;-36
2021/10/04 21:37:28;;;;;;;4.65;3.13;;;12.30;99.90;;;;;;12510046;28;20800;-36
2021/10/04 21:43:29;;;;;;;6.70;3.45;;;12.30;99.90;;;;;;12511337;28;20041;-39
2021/10/04 21:49:31;;;;;;;7.18;3.80;;;12.30;99.90;;;;;;12514114;28;20053;-36
2021/10/04 21:55:33;;;;;;;5.13;3.28;;;12.30;99.90;;;;;;12510775;28;20159;-37
2021/10/04 22:01:46;;;;;;;6.82;3.97;;;12.40;99.90;;;;;;12510828;28;20053;-38
2021/10/04 22:14:10;;;;;;;5.28;3.78;;;12.30;99.90;;;;;;12512253;28;20041;-36
2021/10/04 22:20:12;;;;;;;10.35;3.90;;;12.20;99.90;;;;;;12512666;28;20136;-35
2021/10/04 22:26:17;;;;;;;5.65;3.88;;;12.20;99.90;;;;;;12526299;28;20053;-37
2021/10/04 22:32:18;;;;;;;6.55;3.60;;;12.30;99.90;;;;;;12517949;28;20097;-44
2021/10/04 22:38:20;;;;;;;4.78;3.60;;;12.20;99.90;;;;;;12517857;28;20060;-38
2021/10/04 22:44:22;;;;;;;5.00;3.70;;;12.10;99.90;;;;;;12519489;28;20110;-39
2021/10/04 22:50:24;;;;;;;5.28;3.70;;;12.10;99.90;;;;;;12520345;28;20049;-36
2021/10/04 22:56:26;;;;;;;7.00;3.97;;;12.20;99.90;;;;;;12519563;28;20464;-40
2021/10/04 23:02:27;;;;;;;4.93;3.47;;;12.20;99.90;;;;;;12518076;28;20045;-39
2021/10/04 23:08:29;;;;;;;4.43;3.53;;;12.20;99.90;;;;;;12515277;28;20072;-39
2021/10/04 23:14:31;;;;;;;5.63;4.07;;;12.20;99.90;;;;;;12516713;28;20115;-41
2021/10/04 23:20:33;;;;;;;6.88;3.88;;;12.20;99.90;;;;;;12514612;28;20056;-39
2021/10/04 23:26:35;;;;;;;7.53;4.00;;;12.20;99.90;;;;;;12515584;28;20094;-41
2021/10/04 23:32:37;;;;;;;7.28;4.60;;;12.00;99.90;;;;;;12518172;28;20053;-36
2021/10/04 23:38:39;;;;;;;5.35;4.03;;;12.10;99.90;;;;;;12515993;28;20045;-36
2021/10/04 23:44:41;;;;;;;6.90;4.30;;;12.00;99.90;;;;;;12517887;28;20044;-42
2021/10/04 23:50:42;;;;;;;8.25;3.88;;;12.00;99.90;;;;;;12516505;28;20049;-41
2021/10/04 23:56:44;;;;;;;5.72;3.90;;;12.00;99.90;;;;;;12514000;28;20049;-36
